sensor_id;sensor_type;location;lat;lon;timestamp;temperature;humidity
35804;DHT22;21924;51.934;7.414;2023-04-12T00:00:49;8.30;99.90
35804;DHT22;21924;51.934;7.414;2023-04-12T00:03:35;8.30;99.90
35804;DHT22;21924;51.934;7.414;2023-04-12T00:06:20;8.30;99.90
35804;DHT22;21924;51.934;7.414;2023-04-12T00:09:30;8.40;99.90
35804;DHT22;21924;51.934;7.414;2023-04-12T00:12:18;8.40;99.90
35804;DHT22;21924;51.934;7.414;2023-04-12T00:15:02;8.40;99.90
35804;DHT22;21924;51.934;7.414;2023-04-12T00:17:47;8.30;99.90
35804;DHT22;21924;51.934;7.414;2023-04-12T00:20:31;8.30;99.90
35804;DHT22;21924;51.934;7.414;2023-04-12T00:23:16;8.30;99.90
35804;DHT22;21924;51.934;7.414;2023-04-12T00:26:02;8.30;99.90
35804;DHT22;21924;51.934;7.414;2023-04-12T00:28:48;8.30;99.90
35804;DHT22;21924;51.934;7.414;2023-04-12T00:31:32;8.30;99.90
35804;DHT22;21924;51.934;7.414;2023-04-12T00:34:16;8.30;99.90
35804;DHT22;21924;51.934;7.414;2023-04-12T00:37:01;8.30;99.90
35804;DHT22;21924;51.934;7.414;2023-04-12T00:39:46;8.30;99.90
35804;DHT22;21924;51.934;7.414;2023-04-12T00:42:32;8.30;99.90
35804;DHT22;21924;51.934;7.414;2023-04-12T00:45:17;8.30;99.90
35804;DHT22;21924;51.934;7.414;2023-04-12T00:48:24;8.30;99.90
35804;DHT22;21924;51.934;7.414;2023-04-12T00:51:14;8.30;99.90
35804;DHT22;21924;51.934;7.414;2023-04-12T00:54:48;8.30;99.90
35804;DHT22;21924;51.934;7.414;2023-04-12T00:57:54;8.30;99.90
35804;DHT22;21924;51.934;7.414;2023-04-12T01:01:04;8.30;99.90
35804;DHT22;21924;51.934;7.414;2023-04-12T01:03:52;8.30;99.90
35804;DHT22;21924;51.934;7.414;2023-04-12T01:14:21;8.30;99.90
35804;DHT22;21924;51.934;7.414;2023-04-12T01:17:29;8.40;99.90
35804;DHT22;21924;51.934;7.414;2023-04-12T01:21:17;8.40;99.90
35804;DHT22;21924;51.934;7.414;2023-04-12T01:24:28;8.50;99.90
35804;DHT22;21924;51.934;7.414;2023-04-12T01:27:47;8.50;99.90
35804;DHT22;21924;51.934;7.414;2023-04-12T01:50:21;8.60;99.90
35804;DHT22;21924;51.934;7.414;2023-04-12T01:57:08;8.60;99.90
35804;DHT22;21924;51.934;7.414;2023-04-12T02:00:13;8.60;99.90
35804;DHT22;21924;51.934;7.414;2023-04-12T02:03:10;8.70;99.90
35804;DHT22;21924;51.934;7.414;2023-04-12T02:05:58;8.70;99.90
35804;DHT22;21924;51.934;7.414;2023-04-12T02:08:46;8.80;99.90
35804;DHT22;21924;51.934;7.414;2023-04-12T02:11:31;8.80;99.90
35804;DHT22;21924;51.934;7.414;2023-04-12T02:14:21;8.80;99.90
35804;DHT22;21924;51.934;7.414;2023-04-12T02:28:17;8.70;99.90
35804;DHT22;21924;51.934;7.414;2023-04-12T02:31:20;8.70;99.90
35804;DHT22;21924;51.934;7.414;2023-04-12T02:34:04;8.70;99.90
35804;DHT22;21924;51.934;7.414;2023-04-12T02:40:45;8.70;99.90
35804;DHT22;21924;51.934;7.414;2023-04-12T02:43:47;8.70;99.90
35804;DHT22;21924;51.934;7.414;2023-04-12T02:50:17;8.80;99.90
35804;DHT22;21924;51.934;7.414;2023-04-12T02:53:38;8.70;99.90
35804;DHT22;21924;51.934;7.414;2023-04-12T03:00:15;8.70;99.90
35804;DHT22;21924;51.934;7.414;2023-04-12T03:03:21;8.70;99.90
35804;DHT22;21924;51.934;7.414;2023-04-12T03:06:20;8.70;99.90
35804;DHT22;21924;51.934;7.414;2023-04-12T03:27:41;8.60;99.90
35804;DHT22;21924;51.934;7.414;2023-04-12T03:49:18;8.40;99.90
35804;DHT22;21924;51.934;7.414;2023-04-12T03:59:14;8.30;99.90
35804;DHT22;21924;51.934;7.414;2023-04-12T04:05:52;8.30;99.90
35804;DHT22;21924;51.934;7.414;2023-04-12T04:30:51;8.30;99.90
35804;DHT22;21924;51.934;7.414;2023-04-12T04:34:02;8.30;99.90
35804;DHT22;21924;51.934;7.414;2023-04-12T04:37:28;8.30;99.90
35804;DHT22;21924;51.934;7.414;2023-04-12T04:44:17;8.20;99.90
35804;DHT22;21924;51.934;7.414;2023-04-12T05:01:46;8.20;99.90
35804;DHT22;21924;51.934;7.414;2023-04-12T05:04:30;8.20;99.90
35804;DHT22;21924;51.934;7.414;2023-04-12T05:15:09;8.20;99.90
35804;DHT22;21924;51.934;7.414;2023-04-12T05:32:43;8.10;99.90
35804;DHT22;21924;51.934;7.414;2023-04-12T05:42:40;8.20;99.90
35804;DHT22;21924;51.934;7.414;2023-04-12T05:53:06;8.10;99.90
35804;DHT22;21924;51.934;7.414;2023-04-12T05:59:41;8.00;99.90
35804;DHT22;21924;51.934;7.414;2023-04-12T06:13:47;7.90;99.90
35804;DHT22;21924;51.934;7.414;2023-04-12T06:16:56;7.90;99.90
35804;DHT22;21924;51.934;7.414;2023-04-12T06:20:03;7.90;99.90
35804;DHT22;21924;51.934;7.414;2023-04-12T06:37:53;7.90;99.90
35804;DHT22;21924;51.934;7.414;2023-04-12T06:59:14;8.10;99.90
35804;DHT22;21924;51.934;7.414;2023-04-12T07:13:05;8.20;99.90
35804;DHT22;21924;51.934;7.414;2023-04-12T07:15:52;8.10;99.90
35804;DHT22;21924;51.934;7.414;2023-04-12T07:18:38;8.10;99.90
35804;DHT22;21924;51.934;7.414;2023-04-12T07:21:26;8.20;99.90
35804;DHT22;21924;51.934;7.414;2023-04-12T07:24:13;8.20;99.90
35804;DHT22;21924;51.934;7.414;2023-04-12T07:26:57;8.20;99.90
35804;DHT22;21924;51.934;7.414;2023-04-12T07:29:49;8.20;99.90
35804;DHT22;21924;51.934;7.414;2023-04-12T07:32:34;8.10;99.90
35804;DHT22;21924;51.934;7.414;2023-04-12T07:35:18;8.20;99.90
35804;DHT22;21924;51.934;7.414;2023-04-12T07:38:03;8.20;99.90
35804;DHT22;21924;51.934;7.414;2023-04-12T07:40:49;8.30;99.90
35804;DHT22;21924;51.934;7.414;2023-04-12T07:43:33;8.40;99.90
35804;DHT22;21924;51.934;7.414;2023-04-12T07:46:20;8.40;99.90
35804;DHT22;21924;51.934;7.414;2023-04-12T07:49:14;8.40;99.90
35804;DHT22;21924;51.934;7.414;2023-04-12T07:55:39;8.50;99.90
35804;DHT22;21924;51.934;7.414;2023-04-12T07:58:24;8.50;99.90
35804;DHT22;21924;51.934;7.414;2023-04-12T08:01:11;8.60;99.90
35804;DHT22;21924;51.934;7.414;2023-04-12T08:03:56;8.60;99.90
35804;DHT22;21924;51.934;7.414;2023-04-12T08:06:42;8.60;99.90
35804;DHT22;21924;51.934;7.414;2023-04-12T08:09:26;8.70;99.90
35804;DHT22;21924;51.934;7.414;2023-04-12T08:12:12;8.70;99.90
35804;DHT22;21924;51.934;7.414;2023-04-12T08:15:16;8.70;99.90
35804;DHT22;21924;51.934;7.414;2023-04-12T08:18:06;8.70;99.90
35804;DHT22;21924;51.934;7.414;2023-04-12T08:21:21;8.60;99.90
35804;DHT22;21924;51.934;7.414;2023-04-12T08:24:30;8.70;99.90
35804;DHT22;21924;51.934;7.414;2023-04-12T08:27:44;8.70;99.90
35804;DHT22;21924;51.934;7.414;2023-04-12T08:30:54;8.70;99.90
35804;DHT22;21924;51.934;7.414;2023-04-12T08:37:42;8.70;99.90
35804;DHT22;21924;51.934;7.414;2023-04-12T08:47:40;8.60;99.90
35804;DHT22;21924;51.934;7.414;2023-04-12T08:50:29;8.60;99.90
35804;DHT22;21924;51.934;7.414;2023-04-12T08:53:14;8.60;99.90
35804;DHT22;21924;51.934;7.414;2023-04-12T08:55:59;8.70;99.90
35804;DHT22;21924;51.934;7.414;2023-04-12T08:58:47;8.80;99.90
35804;DHT22;21924;51.934;7.414;2023-04-12T09:01:35;8.80;99.90
35804;DHT22;21924;51.934;7.414;2023-04-12T09:08:31;9.00;99.90
35804;DHT22;21924;51.934;7.414;2023-04-12T09:11:44;9.00;99.90
35804;DHT22;21924;51.934;7.414;2023-04-12T09:14:30;9.10;99.90
35804;DHT22;21924;51.934;7.414;2023-04-12T09:17:33;9.20;99.90
35804;DHT22;21924;51.934;7.414;2023-04-12T09:20:39;9.10;99.90
35804;DHT22;21924;51.934;7.414;2023-04-12T09:23:59;9.10;99.90
35804;DHT22;21924;51.934;7.414;2023-04-12T09:27:16;9.10;99.90
35804;DHT22;21924;51.934;7.414;2023-04-12T09:30:40;9.10;99.90
35804;DHT22;21924;51.934;7.414;2023-04-12T09:33:52;9.10;99.90
35804;DHT22;21924;51.934;7.414;2023-04-12T09:36:44;9.20;99.90
35804;DHT22;21924;51.934;7.414;2023-04-12T09:39:33;9.20;99.90
35804;DHT22;21924;51.934;7.414;2023-04-12T09:42:19;9.20;99.90
35804;DHT22;21924;51.934;7.414;2023-04-12T09:53:00;9.40;99.90
35804;DHT22;21924;51.934;7.414;2023-04-12T09:56:13;9.60;99.90
35804;DHT22;21924;51.934;7.414;2023-04-12T09:59:17;9.60;99.90
35804;DHT22;21924;51.934;7.414;2023-04-12T10:02:24;9.60;99.90
35804;DHT22;21924;51.934;7.414;2023-04-12T10:09:42;9.70;99.90
35804;DHT22;21924;51.934;7.414;2023-04-12T10:17:07;9.60;99.90
35804;DHT22;21924;51.934;7.414;2023-04-12T10:38:07;10.20;99.90
35804;DHT22;21924;51.934;7.414;2023-04-12T10:41:12;10.30;99.90
35804;DHT22;21924;51.934;7.414;2023-04-12T10:47:55;10.80;99.90
35804;DHT22;21924;51.934;7.414;2023-04-12T10:54:48;11.50;99.90
35804;DHT22;21924;51.934;7.414;2023-04-12T11:01:26;11.50;99.90
35804;DHT22;21924;51.934;7.414;2023-04-12T11:08:07;11.20;99.90
35804;DHT22;21924;51.934;7.414;2023-04-12T11:10:51;11.10;99.90
35804;DHT22;21924;51.934;7.414;2023-04-12T11:13:37;11.00;99.90
35804;DHT22;21924;51.934;7.414;2023-04-12T11:20:03;11.00;99.90
35804;DHT22;21924;51.934;7.414;2023-04-12T11:30:29;11.10;99.90
35804;DHT22;21924;51.934;7.414;2023-04-12T11:40:50;11.00;99.90
35804;DHT22;21924;51.934;7.414;2023-04-12T11:58:47;10.10;99.90
35804;DHT22;21924;51.934;7.414;2023-04-12T12:05:12;10.20;99.90
35804;DHT22;21924;51.934;7.414;2023-04-12T12:08:20;10.40;99.90
35804;DHT22;21924;51.934;7.414;2023-04-12T12:23:09;10.90;99.90
35804;DHT22;21924;51.934;7.414;2023-04-12T12:29:36;11.20;99.90
35804;DHT22;21924;51.934;7.414;2023-04-12T12:36:07;11.60;99.90
35804;DHT22;21924;51.934;7.414;2023-04-12T12:39:15;11.80;99.90
35804;DHT22;21924;51.934;7.414;2023-04-12T13:00:55;12.90;99.90
35804;DHT22;21924;51.934;7.414;2023-04-12T13:22:30;14.00;99.90
35804;DHT22;21924;51.934;7.414;2023-04-12T13:25:15;13.90;99.90
35804;DHT22;21924;51.934;7.414;2023-04-12T13:28:05;13.90;99.90
35804;DHT22;21924;51.934;7.414;2023-04-12T13:30:58;13.90;99.90
35804;DHT22;21924;51.934;7.414;2023-04-12T13:37:36;14.50;99.90
35804;DHT22;21924;51.934;7.414;2023-04-12T13:44:01;15.40;99.90
35804;DHT22;21924;51.934;7.414;2023-04-12T13:51:12;16.00;99.90
35804;DHT22;21924;51.934;7.414;2023-04-12T14:05:14;15.60;99.90
35804;DHT22;21924;51.934;7.414;2023-04-12T14:08:36;15.90;99.90
35804;DHT22;21924;51.934;7.414;2023-04-12T14:12:20;16.00;99.90
35804;DHT22;21924;51.934;7.414;2023-04-12T14:15:13;16.00;99.90
35804;DHT22;21924;51.934;7.414;2023-04-12T14:25:00;14.40;99.90
35804;DHT22;21924;51.934;7.414;2023-04-12T14:27:44;13.90;99.90
35804;DHT22;21924;51.934;7.414;2023-04-12T14:30:29;13.70;99.90
35804;DHT22;21924;51.934;7.414;2023-04-12T14:33:13;12.90;99.90
35804;DHT22;21924;51.934;7.414;2023-04-12T14:35:57;12.30;99.90
35804;DHT22;21924;51.934;7.414;2023-04-12T14:38:44;11.70;99.90
35804;DHT22;21924;51.934;7.414;2023-04-12T14:41:31;11.50;99.90
35804;DHT22;21924;51.934;7.414;2023-04-12T14:44:16;11.10;99.90
35804;DHT22;21924;51.934;7.414;2023-04-12T14:47:01;10.90;99.90
35804;DHT22;21924;51.934;7.414;2023-04-12T14:49:45;10.80;99.90
35804;DHT22;21924;51.934;7.414;2023-04-12T14:52:36;10.70;99.90
35804;DHT22;21924;51.934;7.414;2023-04-12T14:55:40;10.70;99.90
35804;DHT22;21924;51.934;7.414;2023-04-12T14:58:24;10.50;99.90
35804;DHT22;21924;51.934;7.414;2023-04-12T15:01:15;10.30;99.90
35804;DHT22;21924;51.934;7.414;2023-04-12T15:08:19;10.00;99.90
35804;DHT22;21924;51.934;7.414;2023-04-12T15:18:58;9.50;99.90
35804;DHT22;21924;51.934;7.414;2023-04-12T15:32:44;9.60;99.90
35804;DHT22;21924;51.934;7.414;2023-04-12T15:35:48;9.50;99.90
35804;DHT22;21924;51.934;7.414;2023-04-12T15:38:41;9.50;99.90
35804;DHT22;21924;51.934;7.414;2023-04-12T15:41:25;9.40;99.90
35804;DHT22;21924;51.934;7.414;2023-04-12T15:44:10;9.50;99.90
35804;DHT22;21924;51.934;7.414;2023-04-12T15:46:57;9.40;99.90
35804;DHT22;21924;51.934;7.414;2023-04-12T15:49:42;9.40;99.90
35804;DHT22;21924;51.934;7.414;2023-04-12T15:52:27;9.40;99.90
35804;DHT22;21924;51.934;7.414;2023-04-12T15:55:13;9.30;99.90
35804;DHT22;21924;51.934;7.414;2023-04-12T15:58:00;9.20;99.90
35804;DHT22;21924;51.934;7.414;2023-04-12T16:00:45;9.20;99.90
35804;DHT22;21924;51.934;7.414;2023-04-12T16:03:32;9.20;99.90
35804;DHT22;21924;51.934;7.414;2023-04-12T16:06:18;9.20;99.90
35804;DHT22;21924;51.934;7.414;2023-04-12T16:09:03;9.20;99.90
35804;DHT22;21924;51.934;7.414;2023-04-12T16:11:49;9.10;99.90
35804;DHT22;21924;51.934;7.414;2023-04-12T16:14:35;9.20;99.90
35804;DHT22;21924;51.934;7.414;2023-04-12T16:17:19;9.10;99.90
35804;DHT22;21924;51.934;7.414;2023-04-12T16:20:03;9.00;99.90
35804;DHT22;21924;51.934;7.414;2023-04-12T16:30:12;9.10;99.90
35804;DHT22;21924;51.934;7.414;2023-04-12T16:33:01;9.20;99.90
35804;DHT22;21924;51.934;7.414;2023-04-12T16:36:17;9.40;99.90
35804;DHT22;21924;51.934;7.414;2023-04-12T16:39:21;9.70;99.90
35804;DHT22;21924;51.934;7.414;2023-04-12T16:42:28;9.90;99.90
35804;DHT22;21924;51.934;7.414;2023-04-12T16:49:51;9.80;99.90
35804;DHT22;21924;51.934;7.414;2023-04-12T16:56:45;9.50;99.90
35804;DHT22;21924;51.934;7.414;2023-04-12T16:59:31;9.20;99.90
35804;DHT22;21924;51.934;7.414;2023-04-12T17:05:55;9.00;99.90
35804;DHT22;21924;51.934;7.414;2023-04-12T17:08:39;8.90;99.90
35804;DHT22;21924;51.934;7.414;2023-04-12T17:11:23;8.80;99.90
35804;DHT22;21924;51.934;7.414;2023-04-12T17:14:10;8.70;99.90
35804;DHT22;21924;51.934;7.414;2023-04-12T17:16:56;8.70;99.90
35804;DHT22;21924;51.934;7.414;2023-04-12T17:20:03;8.60;99.90
35804;DHT22;21924;51.934;7.414;2023-04-12T17:27:19;8.30;99.90
35804;DHT22;21924;51.934;7.414;2023-04-12T17:37:45;8.30;99.90
35804;DHT22;21924;51.934;7.414;2023-04-12T17:51:54;8.20;99.90
35804;DHT22;21924;51.934;7.414;2023-04-12T17:55:05;8.30;99.90
35804;DHT22;21924;51.934;7.414;2023-04-12T18:11:33;7.90;99.90
35804;DHT22;21924;51.934;7.414;2023-04-12T18:33:00;6.90;99.90
35804;DHT22;21924;51.934;7.414;2023-04-12T18:47:12;6.40;99.90
35804;DHT22;21924;51.934;7.414;2023-04-12T18:50:16;6.30;99.90
35804;DHT22;21924;51.934;7.414;2023-04-12T19:00:53;6.00;99.90
35804;DHT22;21924;51.934;7.414;2023-04-12T19:03:38;6.00;99.90
35804;DHT22;21924;51.934;7.414;2023-04-12T19:10:05;5.80;99.90
35804;DHT22;21924;51.934;7.414;2023-04-12T19:12:50;5.70;99.90
35804;DHT22;21924;51.934;7.414;2023-04-12T19:19:17;5.60;99.90
35804;DHT22;21924;51.934;7.414;2023-04-12T19:22:48;5.50;99.90
35804;DHT22;21924;51.934;7.414;2023-04-12T19:49:53;5.30;99.90
35804;DHT22;21924;51.934;7.414;2023-04-12T19:53:02;5.20;99.90
35804;DHT22;21924;51.934;7.414;2023-04-12T19:59:59;5.20;99.90
35804;DHT22;21924;51.934;7.414;2023-04-12T20:06:34;5.20;99.90
35804;DHT22;21924;51.934;7.414;2023-04-12T20:09:25;5.20;99.90
35804;DHT22;21924;51.934;7.414;2023-04-12T20:12:14;5.20;99.90
35804;DHT22;21924;51.934;7.414;2023-04-12T20:22:22;5.00;99.90
35804;DHT22;21924;51.934;7.414;2023-04-12T20:25:06;5.00;99.90
35804;DHT22;21924;51.934;7.414;2023-04-12T20:28:11;5.00;99.90
35804;DHT22;21924;51.934;7.414;2023-04-12T20:35:14;5.10;99.90
35804;DHT22;21924;51.934;7.414;2023-04-12T20:41:34;5.10;99.90
35804;DHT22;21924;51.934;7.414;2023-04-12T20:48:16;5.00;99.90
35804;DHT22;21924;51.934;7.414;2023-04-12T20:51:24;5.00;99.90
35804;DHT22;21924;51.934;7.414;2023-04-12T21:05:37;5.00;99.90
35804;DHT22;21924;51.934;7.414;2023-04-12T21:15:32;4.90;99.90
35804;DHT22;21924;51.934;7.414;2023-04-12T21:26:08;4.80;99.90
35804;DHT22;21924;51.934;7.414;2023-04-12T21:36:17;4.80;99.90
35804;DHT22;21924;51.934;7.414;2023-04-12T21:39:08;4.70;99.90
35804;DHT22;21924;51.934;7.414;2023-04-12T21:42:08;4.70;99.90
35804;DHT22;21924;51.934;7.414;2023-04-12T21:44:52;4.70;99.90
35804;DHT22;21924;51.934;7.414;2023-04-12T21:47:38;4.70;99.90
35804;DHT22;21924;51.934;7.414;2023-04-12T21:50:22;4.70;99.90
35804;DHT22;21924;51.934;7.414;2023-04-12T21:53:10;4.70;99.90
35804;DHT22;21924;51.934;7.414;2023-04-12T21:56:04;4.60;99.90
35804;DHT22;21924;51.934;7.414;2023-04-12T21:58:48;4.60;99.90
35804;DHT22;21924;51.934;7.414;2023-04-12T22:01:33;4.60;99.90
35804;DHT22;21924;51.934;7.414;2023-04-12T22:04:17;4.60;99.90
35804;DHT22;21924;51.934;7.414;2023-04-12T22:07:03;4.60;99.90
35804;DHT22;21924;51.934;7.414;2023-04-12T22:09:51;4.60;99.90
35804;DHT22;21924;51.934;7.414;2023-04-12T22:12:37;4.70;99.90
35804;DHT22;21924;51.934;7.414;2023-04-12T22:15:21;4.70;99.90
35804;DHT22;21924;51.934;7.414;2023-04-12T22:18:06;4.70;99.90
35804;DHT22;21924;51.934;7.414;2023-04-12T22:20:51;4.60;99.90
35804;DHT22;21924;51.934;7.414;2023-04-12T22:23:36;4.60;99.90
35804;DHT22;21924;51.934;7.414;2023-04-12T22:26:23;4.50;99.90
35804;DHT22;21924;51.934;7.414;2023-04-12T22:29:12;4.50;99.90
35804;DHT22;21924;51.934;7.414;2023-04-12T22:31:56;4.40;99.90
35804;DHT22;21924;51.934;7.414;2023-04-12T22:34:40;4.40;99.90
35804;DHT22;21924;51.934;7.414;2023-04-12T22:37:28;4.40;99.90
35804;DHT22;21924;51.934;7.414;2023-04-12T22:40:13;4.40;99.90
35804;DHT22;21924;51.934;7.414;2023-04-12T22:42:58;4.50;99.90
35804;DHT22;21924;51.934;7.414;2023-04-12T22:45:44;4.50;99.90
35804;DHT22;21924;51.934;7.414;2023-04-12T22:48:50;4.50;99.90
35804;DHT22;21924;51.934;7.414;2023-04-12T22:51:35;4.50;99.90
35804;DHT22;21924;51.934;7.414;2023-04-12T22:54:19;4.60;99.90
35804;DHT22;21924;51.934;7.414;2023-04-12T22:57:12;4.60;99.90
35804;DHT22;21924;51.934;7.414;2023-04-12T22:59:57;4.70;99.90
35804;DHT22;21924;51.934;7.414;2023-04-12T23:02:50;4.80;99.90
35804;DHT22;21924;51.934;7.414;2023-04-12T23:05:36;5.00;99.90
35804;DHT22;21924;51.934;7.414;2023-04-12T23:08:20;5.20;99.90
35804;DHT22;21924;51.934;7.414;2023-04-12T23:11:08;5.30;99.90
35804;DHT22;21924;51.934;7.414;2023-04-12T23:13:58;5.40;99.90
35804;DHT22;21924;51.934;7.414;2023-04-12T23:16:45;5.50;99.90
35804;DHT22;21924;51.934;7.414;2023-04-12T23:19:39;5.60;99.90
35804;DHT22;21924;51.934;7.414;2023-04-12T23:22:28;5.60;99.90
35804;DHT22;21924;51.934;7.414;2023-04-12T23:25:17;5.60;99.90
35804;DHT22;21924;51.934;7.414;2023-04-12T23:28:09;5.70;99.90
35804;DHT22;21924;51.934;7.414;2023-04-12T23:31:26;5.70;99.90
35804;DHT22;21924;51.934;7.414;2023-04-12T23:34:10;5.70;99.90
35804;DHT22;21924;51.934;7.414;2023-04-12T23:36:54;5.70;99.90
35804;DHT22;21924;51.934;7.414;2023-04-12T23:39:39;5.50;99.90
35804;DHT22;21924;51.934;7.414;2023-04-12T23:42:24;5.60;99.90
35804;DHT22;21924;51.934;7.414;2023-04-12T23:45:09;5.60;99.90
35804;DHT22;21924;51.934;7.414;2023-04-12T23:47:55;5.60;99.90
35804;DHT22;21924;51.934;7.414;2023-04-12T23:50:41;5.60;99.90
35804;DHT22;21924;51.934;7.414;2023-04-12T23:53:27;5.50;99.90
35804;DHT22;21924;51.934;7.414;2023-04-12T23:56:11;5.50;99.90
35804;DHT22;21924;51.934;7.414;2023-04-12T23:58:56;5.50;99.90
